Latest Coastal Weather Observations for Rundle Island

IDQ60701

Issued at 8:45 pm EST Thursday 24 July 2014 (issued every 10 minutes, with the page automatically refreshed every 10 minutes)

About coastal observations | Map of coastal stations | Coastal observations for QLD | Marine services | Other Formats
Station Details ID: 039322 Name: RUNDLE ISLAND Lat: -23.53 Lon: 151.28 Height: 19.8 m
Data from the previous 72 hours. | See also: Recent months at Rundle Island
Date/Time
EST
Temp

°C
Wind Pressure Rain
since 9am
mm
Weather Cloud Vis
km
Sea
Height
m
Swell
Dir
 
Speed
knots
Gust
knots
hPa Trend Height
m
Period
s
Dir
24/08:30pm 19.3 E 8 8 1022.5 - - - - - - - - -
24/08:00pm 19.3 E 8 9 1022.2 - - - - - - - - -
24/07:30pm 19.6 E 10 11 1022.0 - - - - - - - - -
24/07:00pm 19.6 E 10 11 1021.6 - - - - - - - - -
24/06:30pm 19.4 E 11 12 1021.2 - - - - - - - - -
24/06:00pm 19.1 ESE 12 13 1020.6 - - - - - - - - -
24/05:30pm 19.3 ESE 12 14 1020.4 - - - - - - - - -
24/05:00pm 19.5 ESE 11 12 1020.1 - - - - - - - - -
24/04:30pm 19.5 ESE 10 12 1019.9 - - - - - - - - -
24/04:00pm 19.4 ESE 10 11 1019.7 - - - - - - - - -
24/03:30pm 19.3 SE 11 13 1019.8 - - - - - - - - -
24/03:00pm 19.4 SE 11 14 1019.6 - - - - - - - - -
24/02:30pm 19.1 SE 12 14 1019.7 - - - - - - - - -
24/02:00pm 19.2 SE 12 14 1019.6 - - - - - - - - -
24/01:30pm 19.2 SE 12 14 1019.9 - - - - - - - - -
24/01:00pm 19.1 SSE 11 13 1019.9 - - - - - - - - -
24/12:30pm 18.8 SSE 12 13 1020.4 - - - - - - - - -
24/12:00pm 19.4 S 11 13 1020.8 - - - - - - - - -
24/11:30am 18.6 S 12 13 1021.2 - - - - - - - - -
24/11:00am 18.4 SSE 10 12 1021.4 - - - - - - - - -
24/10:30am 18.2 SE 11 13 1021.5 - - - - - - - - -
24/10:00am 18.3 SE 12 15 1021.3 - - - - - - - - -
24/09:30am 18.1 SE 13 15 1021.2 - - - - - - - - -
24/09:00am 17.8 SE 13 15 1021.3 - - - - - - - - -
24/08:30am 17.9 SSE 13 15 1021.4 - - - - - - - - -
24/08:00am 17.7 SSE 14 16 1020.9 - - - - - - - - -
24/07:30am 17.6 SSE 15 17 1020.9 - - - - - - - - -
24/07:00am 17.4 SSE 13 15 1020.5 - - - - - - - - -
24/06:30am 16.8 S 13 15 1020.3 - - - - - - - - -
24/06:00am 17.0 S 14 16 1020.0 - - - - - - - - -
24/05:30am 17.1 S 15 17 1019.9 - - - - - - - - -
24/05:00am 17.0 S 15 18 1019.5 - - - - - - - - -
24/04:30am 16.9 S 16 18 1019.5 - - - - - - - - -
24/04:00am 17.1 S 15 17 1019.3 - - - - - - - - -
24/03:30am 17.0 S 16 17 1019.4 - - - - - - - - -
24/03:00am 16.9 S 15 17 1019.5 - - - - - - - - -
24/02:30am 17.0 S 15 17 1019.8 - - - - - - - - -
24/02:00am 17.2 S 15 17 1019.7 - - - - - - - - -
24/01:30am 17.5 S 15 16 1019.9 - - - - - - - - -
24/01:00am 17.5 S 14 16 1019.9 - - - - - - - - -
24/12:30am 17.9 S 12 14 1020.1 - - - - - - - - -
24/12:00am 19.2 SE 12 15 1020.0 - - - - - - - - -
 
Date/Time
EST
Temp

°C
Wind Pressure Rain
since 9am
mm
Weather Cloud Vis
km
Sea
Height
m
Swell
Dir
 
Speed
knots
Gust
knots
hPa Trend Height
m
Period
s
Dir
23/11:30pm 19.4 ESE 15 17 1020.2 - - - - - - - - -
23/11:00pm 19.3 ESE 14 16 1020.0 - - - - - - - - -
23/10:30pm 19.4 ESE 13 16 1020.1 - - - - - - - - -
23/10:00pm 19.5 ESE 14 16 1020.1 - - - - - - - - -
23/09:30pm 19.3 ESE 15 17 1020.0 - - - - - - - - -
23/09:00pm 19.4 ESE 16 18 1019.8 - - - - - - - - -
23/08:30pm 19.3 ESE 17 19 1019.6 - - - - - - - - -
23/08:00pm 19.4 ESE 16 19 1019.5 - - - - - - - - -
23/07:30pm 19.4 E 16 18 1019.6 - - - - - - - - -
23/07:00pm 19.4 E 17 19 1019.2 - - - - - - - - -
23/06:30pm 19.4 E 17 19 1019.0 - - - - - - - - -
23/06:00pm 19.4 E 17 19 1018.4 - - - - - - - - -
23/05:30pm 19.2 E 16 18 1018.5 - - - - - - - - -
23/05:00pm 19.3 E 17 19 1018.3 - - - - - - - - -
23/04:30pm 19.2 E 16 18 1018.2 - - - - - - - - -
23/04:00pm 19.3 ESE 16 19 1018.1 - - - - - - - - -
23/03:30pm 19.2 ESE 15 18 1018.3 - - - - - - - - -
23/03:00pm 19.3 ESE 14 16 1018.3 - - - - - - - - -
23/02:30pm 19.4 ESE 13 15 1018.6 - - - - - - - - -
23/02:00pm 19.2 ESE 12 14 1018.6 - - - - - - - - -
23/01:30pm 19.2 SE 13 15 1018.9 - - - - - - - - -
23/01:00pm 19.2 SE 11 13 1019.0 - - - - - - - - -
23/12:30pm 18.9 SE 10 12 1019.4 - - - - - - - - -
23/12:00pm 19.0 SSE 10 12 1020.4 - - - - - - - - -
23/11:30am 18.7 S 12 14 1021.3 - - - - - - - - -
23/11:00am 18.3 SSE 12 14 1020.6 - - - - - - - - -
23/10:30am 18.2 SSE 13 16 1020.8 - - - - - - - - -
23/10:00am 18.0 S 13 14 1021.3 - - - - - - - - -
23/09:30am 17.6 S 13 15 1021.6 - - - - - - - - -
23/09:00am 17.4 S 15 16 1021.4 - - - - - - - - -
23/08:30am 17.3 S 14 16 1021.2 - - - - - - - - -
23/08:00am 17.2 S 15 18 1020.6 - - - - - - - - -
23/07:30am 17.2 S 16 17 1020.4 - - - - - - - - -
23/07:00am 17.2 SSE 14 16 1019.8 - - - - - - - - -
23/06:30am 17.2 S 14 16 1019.6 - - - - - - - - -
23/06:00am 17.3 S 14 16 1019.0 - - - - - - - - -
23/05:30am 17.1 S 12 13 1019.0 - - - - - - - - -
23/05:00am 17.0 S 13 15 1018.6 - - - - - - - - -
23/04:30am 17.0 S 13 15 1018.6 - - - - - - - - -
23/04:00am 17.0 S 12 14 1018.1 - - - - - - - - -
23/03:30am 17.0 S 13 14 1018.2 - - - - - - - - -
23/03:00am 17.2 S 13 14 1018.3 - - - - - - - - -
23/02:30am 17.5 S 12 13 1018.5 - - - - - - - - -
23/02:00am 17.5 S 12 13 1018.5 - - - - - - - - -
23/01:30am 17.5 S 12 14 1018.9 - - - - - - - - -
23/01:00am 17.7 S 12 14 1019.0 - - - - - - - - -
23/12:30am 17.9 SSE 12 14 1019.3 - - - - - - - - -
23/12:00am 17.8 S 11 12 1019.1 - - - - - - - - -
 
Date/Time
EST
Temp

°C
Wind Pressure Rain
since 9am
mm
Weather Cloud Vis
km
Sea
Height
m
Swell
Dir
 
Speed
knots
Gust
knots
hPa Trend Height
m
Period
s
Dir
22/11:30pm 18.3 SSE 11 13 1019.3 - - - - - - - - -
22/11:00pm 18.4 SSE 11 12 1019.4 - - - - - - - - -
22/10:30pm 18.6 SSE 10 11 1019.7 - - - - - - - - -
22/10:00pm 19.0 SSE 8 10 1019.8 - - - - - - - - -
22/09:30pm 19.2 SE 9 10 1019.9 - - - - - - - - -
22/09:00pm 19.2 SE 9 10 1019.6 - - - - - - - - -
22/08:30pm 19.2 SE 9 11 1019.7 - - - - - - - - -
22/08:00pm 19.1 ESE 10 11 1019.3 - - - - - - - - -
22/07:30pm 19.3 ESE 11 14 1019.1 - - - - - - - - -
22/07:00pm 19.1 ESE 12 14 1018.8 - - - - - - - - -
22/06:30pm 19.2 ESE 11 13 1018.6 - - - - - - - - -
22/06:00pm 19.2 E 11 13 1018.2 - - - - - - - - -
22/05:30pm 19.3 E 13 15 1017.8 - - - - - - - - -
22/05:00pm 19.3 E 13 14 1017.3 - - - - - - - - -
22/04:30pm 19.4 E 12 13 1017.3 - - - - - - - - -
22/04:00pm 19.4 E 11 12 1017.0 - - - - - - - - -
22/03:30pm 19.4 E 11 13 1017.1 - - - - - - - - -
22/03:00pm 19.3 E 11 12 1017.0 - - - - - - - - -
22/02:30pm 19.5 ESE 11 13 1017.2 - - - - - - - - -
22/02:00pm 19.4 ESE 10 11 1017.5 - - - - - - - - -
22/01:30pm 19.1 ESE 8 9 1018.0 - - - - - - - - -
22/01:00pm 18.7 SE 7 8 1018.4 - - - - - - - - -
22/12:30pm 18.4 SE 8 9 1019.1 - - - - - - - - -
22/12:00pm 18.8 SSE 8 9 1019.6 - - - - - - - - -
22/11:30am 18.3 S 10 11 1020.3 - - - - - - - - -
22/11:00am 18.2 S 10 13 1020.7 - - - - - - - - -
22/10:30am 18.2 S 9 10 1021.2 - - - - - - - - -
22/10:00am 17.4 S 10 12 1021.1 - - - - - - - - -
22/09:30am 17.3 S 12 14 1021.3 - - - - - - - - -
22/09:00am 16.9 S 11 14 1021.2 - - - - - - - - -
22/08:30am 16.4 S 11 13 1021.1 - - - - - - - - -
22/08:00am 16.4 S 10 12 1020.8 - - - - - - - - -
22/07:30am 16.4 S 10 12 1020.6 - - - - - - - - -
22/07:00am 16.1 S 11 14 1020.1 - - - - - - - - -
22/06:30am 16.1 S 11 13 1020.0 - - - - - - - - -
22/06:00am 16.2 S 10 13 1019.9 - - - - - - - - -
22/05:30am 16.3 S 11 13 1019.6 - - - - - - - - -
22/05:00am 16.4 S 12 14 1019.2 - - - - - - - - -
22/04:30am 16.3 S 12 14 1019.1 - - - - - - - - -
22/04:00am 16.3 S 11 12 1019.1 - - - - - - - - -
22/03:30am 16.7 S 11 12 1019.3 - - - - - - - - -
22/03:00am 17.0 S 11 13 1019.3 - - - - - - - - -
22/02:30am 16.7 S 10 12 1019.5 - - - - - - - - -
22/02:00am 16.8 S 10 11 1019.5 - - - - - - - - -
22/01:30am 17.1 S 11 12 1019.8 - - - - - - - - -
22/01:00am 17.2 S 11 12 1019.8 - - - - - - - - -
22/12:30am 17.6 S 9 11 1020.2 - - - - - - - - -
22/12:00am 17.7 S 11 13 1020.1 - - - - - - - - -
 
Date/Time
EST
Temp

°C
Wind Pressure Rain
since 9am
mm
Weather Cloud Vis
km
Sea
Height
m
Swell
Dir
 
Speed
knots
Gust
knots
hPa Trend Height
m
Period
s
Dir
21/11:30pm 17.6 SSW 7 9 1020.6 - - - - - - - - -
21/11:00pm 17.1 SW 7 8 1020.8 - - - - - - - - -
21/10:30pm 16.9 SW 7 8 1020.9 - - - - - - - - -
21/10:00pm 16.6 WSW 7 8 1021.1 - - - - - - - - -
21/09:30pm 18.8 SE 2 3 1021.2 - - - - - - - - -
21/09:00pm 18.9 SE 5 6 1021.0 - - - - - - - - -

Other Formats:

Comma delimited format used in spreadsheet applications
http://www.bom.gov.au/fwo/IDQ60701/IDQ60701.94378.axf

JavaScript Object Notation format (JSON) in row-major order
http://www.bom.gov.au/fwo/IDQ60701/IDQ60701.94378.json